createdAt,value
2019-01-11T00:00:51.476Z,39.73
2019-01-11T00:03:20.360Z,39.20
2019-01-11T00:05:49.287Z,39.10
2019-01-11T00:08:18.178Z,39.17
2019-01-11T00:10:47.074Z,39.77
2019-01-11T00:13:15.977Z,40.93
2019-01-11T00:15:44.863Z,39.70
2019-01-11T00:18:13.749Z,43.50
2019-01-11T00:20:42.611Z,45.63
2019-01-11T00:23:11.565Z,42.17
2019-01-11T00:25:40.432Z,56.85
2019-01-11T00:28:09.297Z,48.63
2019-01-11T00:30:38.235Z,45.13
2019-01-11T00:33:07.142Z,49.17
2019-01-11T00:35:36.033Z,48.97
2019-01-11T00:38:04.948Z,52.00
2019-01-11T00:40:33.824Z,52.40
2019-01-11T00:43:02.693Z,55.67
2019-01-11T00:45:31.579Z,53.57
2019-01-11T00:48:00.470Z,54.80
2019-01-11T00:50:29.363Z,54.70
2019-01-11T00:52:58.230Z,55.83
2019-01-11T00:55:27.124Z,52.53
2019-01-11T00:57:56.000Z,55.33
2019-01-11T01:00:24.897Z,56.60
2019-01-11T01:02:53.807Z,57.77
2019-01-11T01:05:22.695Z,59.03
2019-01-11T01:07:51.578Z,56.47
2019-01-11T01:10:20.483Z,58.60
2019-01-11T01:12:49.394Z,59.03
2019-01-11T01:15:18.284Z,57.03
2019-01-11T01:17:47.385Z,57.37
2019-01-11T01:20:16.269Z,56.70
2019-01-11T01:22:45.196Z,56.83
2019-01-11T01:25:14.110Z,60.43
2019-01-11T01:27:42.972Z,76.82
2019-01-11T01:30:14.050Z,62.40
2019-01-11T01:32:42.924Z,57.27
2019-01-11T01:35:11.836Z,64.23
2019-01-11T01:37:40.792Z,55.43
2019-01-11T01:40:10.825Z,55.20
2019-01-11T01:42:39.717Z,56.90
2019-01-11T01:45:10.760Z,55.53
2019-01-11T01:47:39.645Z,51.63
2019-01-11T01:50:09.260Z,52.80
2019-01-11T01:52:38.180Z,50.20
2019-01-11T01:55:07.636Z,54.10
2019-01-11T01:57:36.573Z,53.83
2019-01-11T02:00:06.784Z,48.23
2019-01-11T02:02:35.673Z,49.73
2019-01-11T02:05:05.671Z,46.27
2019-01-11T02:07:34.574Z,45.90
2019-01-11T02:10:03.659Z,46.20
2019-01-11T02:12:32.550Z,45.00
2019-01-11T02:15:01.458Z,46.90
2019-01-11T02:17:30.338Z,43.90
2019-01-11T02:19:59.239Z,43.70
2019-01-11T02:22:28.129Z,43.40
2019-01-11T02:24:57.018Z,43.60
2019-01-11T02:27:25.899Z,48.50
2019-01-11T02:29:54.791Z,49.17
2019-01-11T02:32:23.695Z,49.53
2019-01-11T02:34:52.562Z,51.20
2019-01-11T02:37:21.452Z,49.40
2019-01-11T02:39:50.350Z,52.43
2019-01-11T02:42:19.246Z,53.97
2019-01-11T02:44:48.173Z,55.67
2019-01-11T02:47:17.051Z,52.77
2019-01-11T02:49:45.923Z,60.53
2019-01-11T02:52:14.816Z,54.37
2019-01-11T02:54:43.706Z,55.17
2019-01-11T02:57:12.603Z,58.73
2019-01-11T02:59:41.509Z,61.70
2019-01-11T03:02:10.398Z,61.30
2019-01-11T03:04:39.291Z,59.80
2019-01-11T03:07:08.211Z,57.47
2019-01-11T03:09:37.175Z,69.47
2019-01-11T03:12:06.005Z,82.70
2019-01-11T03:14:34.871Z,73.27
2019-01-11T03:17:03.750Z,67.07
2019-01-11T03:19:32.660Z,59.17
2019-01-11T03:22:01.566Z,93.17
2019-01-11T03:24:30.464Z,69.07
2019-01-11T03:26:59.337Z,62.73
2019-01-11T03:29:28.278Z,62.43
2019-01-11T03:31:57.197Z,69.50
2019-01-11T03:34:26.101Z,70.23
2019-01-11T03:36:55.017Z,65.87
2019-01-11T03:39:23.926Z,65.37
2019-01-11T03:41:56.589Z,63.73
2019-01-11T03:44:25.470Z,91.85
2019-01-11T03:46:54.395Z,76.97
2019-01-11T03:49:23.306Z,69.17
2019-01-11T03:51:52.207Z,63.37
2019-01-11T03:54:21.082Z,70.73
2019-01-11T03:56:49.998Z,66.53
2019-01-11T03:59:18.901Z,65.43
2019-01-11T04:01:47.792Z,64.17
2019-01-11T04:04:16.689Z,60.40
2019-01-11T04:06:45.611Z,64.60
2019-01-11T04:09:14.527Z,61.83
2019-01-11T04:11:43.407Z,64.30
2019-01-11T04:14:12.329Z,67.87
2019-01-11T04:16:41.226Z,66.37
2019-01-11T04:19:13.626Z,62.50
2019-01-11T04:21:45.090Z,65.60
2019-01-11T04:24:14.028Z,72.77
2019-01-11T04:26:42.921Z,86.70
2019-01-11T04:29:11.813Z,88.12
2019-01-11T04:31:40.729Z,66.37
2019-01-11T04:34:09.608Z,64.87
2019-01-11T04:36:38.537Z,59.57
2019-01-11T04:39:07.562Z,61.30
2019-01-11T04:41:36.450Z,107.63
2019-01-11T04:44:05.336Z,98.60
2019-01-11T04:46:34.214Z,74.90
2019-01-11T04:49:03.094Z,64.07
2019-01-11T04:51:32.014Z,65.97
2019-01-11T04:54:00.924Z,68.97
2019-01-11T04:56:29.796Z,66.40
2019-01-11T04:58:58.708Z,63.93
2019-01-11T05:01:27.602Z,72.40
2019-01-11T05:03:56.494Z,64.53
2019-01-11T05:06:25.376Z,62.53
2019-01-11T05:08:54.277Z,65.07
2019-01-11T05:11:23.189Z,65.63
2019-01-11T05:13:55.135Z,67.13
2019-01-11T05:16:24.024Z,61.87
2019-01-11T05:18:52.936Z,62.97
2019-01-11T05:21:21.865Z,62.47
2019-01-11T05:23:50.704Z,66.07
2019-01-11T05:26:19.603Z,63.33
2019-01-11T05:28:48.492Z,60.20
2019-01-11T05:31:17.355Z,62.20
2019-01-11T05:33:46.249Z,66.37
2019-01-11T05:36:15.144Z,81.47
2019-01-11T05:38:44.067Z,82.40
2019-01-11T05:41:12.958Z,60.33
2019-01-11T05:43:41.865Z,62.43
2019-01-11T05:46:10.750Z,60.20
2019-01-11T05:48:39.656Z,55.20
2019-01-11T05:51:08.537Z,59.00
2019-01-11T05:53:37.438Z,57.37
2019-01-11T05:56:11.244Z,57.73
2019-01-11T05:58:52.946Z,53.57
2019-01-11T06:01:21.853Z,53.70
2019-01-11T06:03:50.719Z,94.32
2019-01-11T06:06:19.645Z,63.57
2019-01-11T06:08:48.544Z,79.85
2019-01-11T06:11:17.428Z,61.93
2019-01-11T06:13:46.303Z,53.07
2019-01-11T06:16:15.204Z,47.93
2019-01-11T06:18:44.115Z,52.10
2019-01-11T06:21:13.044Z,55.50
2019-01-11T06:23:41.935Z,51.83
2019-01-11T06:26:10.857Z,51.57
2019-01-11T06:28:39.759Z,50.27
2019-01-11T06:31:08.663Z,56.20
2019-01-11T06:33:37.544Z,50.43
2019-01-11T06:36:06.445Z,49.47
2019-01-11T06:38:35.340Z,45.60
2019-01-11T06:41:04.243Z,44.57
2019-01-11T06:43:33.114Z,44.97
2019-01-11T06:46:02.000Z,46.07
2019-01-11T06:48:38.230Z,49.50
2019-01-11T06:51:07.162Z,52.00
2019-01-11T06:53:36.051Z,49.87
2019-01-11T06:56:05.030Z,47.30
2019-01-11T06:58:33.963Z,53.43
2019-01-11T07:01:02.903Z,74.80
2019-01-11T07:03:31.823Z,53.03
2019-01-11T07:06:00.725Z,46.83
2019-01-11T07:08:29.620Z,49.97
2019-01-11T07:10:58.526Z,51.40
2019-01-11T07:13:27.402Z,54.60
2019-01-11T07:15:56.336Z,53.03
2019-01-11T07:18:25.213Z,60.40
2019-01-11T07:20:54.092Z,60.55
2019-01-11T07:23:23.024Z,51.67
2019-01-11T07:25:51.921Z,56.07
2019-01-11T07:28:20.796Z,53.70
2019-01-11T07:31:14.562Z,53.57
2019-01-11T07:33:43.433Z,65.37
2019-01-11T07:36:31.314Z,51.20
2019-01-11T07:39:00.215Z,71.93
2019-01-11T07:41:29.137Z,61.10
2019-01-11T07:43:58.033Z,64.77
2019-01-11T07:46:26.918Z,60.57
2019-01-11T07:48:55.832Z,53.30
2019-01-11T07:51:24.737Z,56.70
2019-01-11T07:53:53.666Z,51.60
2019-01-11T07:56:22.586Z,54.43
2019-01-11T07:58:51.476Z,47.30
2019-01-11T08:01:20.422Z,51.30
2019-01-11T08:03:49.338Z,56.10
2019-01-11T08:06:18.219Z,56.80
2019-01-11T08:08:47.122Z,49.17
2019-01-11T08:11:16.000Z,49.13
2019-01-11T08:13:44.920Z,47.00
2019-01-11T08:16:13.803Z,46.37
2019-01-11T08:18:42.743Z,57.70
2019-01-11T08:21:11.668Z,45.00
2019-01-11T08:23:40.569Z,44.80
2019-01-11T08:26:09.472Z,47.20
2019-01-11T08:28:38.343Z,48.33
2019-01-11T08:31:07.264Z,43.40
2019-01-11T08:33:36.165Z,46.80
2019-01-11T08:36:05.058Z,56.43
2019-01-11T08:38:33.963Z,41.87
2019-01-11T08:41:02.852Z,51.63
2019-01-11T08:43:31.760Z,45.93
2019-01-11T08:46:00.656Z,42.93
2019-01-11T08:48:29.571Z,49.00
2019-01-11T08:51:02.596Z,39.90
2019-01-11T08:53:27.442Z,45.07
2019-01-11T08:55:56.286Z,42.97
2019-01-11T08:58:25.232Z,46.47
2019-01-11T09:00:54.111Z,41.97
2019-01-11T09:03:23.004Z,43.87
2019-01-11T09:05:51.956Z,44.53
2019-01-11T09:08:21.163Z,45.10
2019-01-11T09:10:50.033Z,36.53
2019-01-11T09:13:18.903Z,45.30
2019-01-11T09:15:49.125Z,41.83
2019-01-11T09:18:18.563Z,45.83
2019-01-11T09:20:47.476Z,43.97
2019-01-11T09:23:16.373Z,42.67
2019-01-11T09:25:45.285Z,40.37
2019-01-11T09:28:14.194Z,40.20
2019-01-11T09:30:43.074Z,45.20
2019-01-11T09:33:12.033Z,41.17
2019-01-11T09:35:40.909Z,48.83
2019-01-11T09:38:09.890Z,49.42
2019-01-11T09:40:38.702Z,38.90
2019-01-11T09:43:07.599Z,35.60
2019-01-11T09:45:36.480Z,34.07
2019-01-11T09:48:05.367Z,28.93
2019-01-11T09:50:34.273Z,29.30
2019-01-11T09:53:03.154Z,27.50
2019-01-11T09:55:32.054Z,30.60
2019-01-11T09:58:00.925Z,25.03
2019-01-11T10:00:29.816Z,25.30
2019-01-11T10:03:09.785Z,34.13
2019-01-11T10:05:38.676Z,23.00
2019-01-11T10:08:07.583Z,35.70
2019-01-11T10:10:36.473Z,30.82
2019-01-11T10:13:05.360Z,25.97
2019-01-11T10:15:34.237Z,24.20
2019-01-11T10:18:03.137Z,27.33
2019-01-11T10:20:32.051Z,34.13
2019-01-11T10:23:00.927Z,22.07
2019-01-11T10:25:29.822Z,21.40
2019-01-11T10:27:58.752Z,21.07
2019-01-11T10:30:27.621Z,17.93
2019-01-11T10:32:56.539Z,14.80
2019-01-11T10:35:25.410Z,19.33
2019-01-11T10:37:54.316Z,21.10
2019-01-11T10:40:23.245Z,17.73
2019-01-11T10:42:52.097Z,24.23
2019-01-11T10:45:22.384Z,19.73
2019-01-11T10:47:53.078Z,21.60
2019-01-11T10:50:22.025Z,21.60
2019-01-11T10:52:50.884Z,20.73
2019-01-11T10:55:19.778Z,20.37
2019-01-11T10:57:49.132Z,18.97
2019-01-11T11:00:20.135Z,17.40
2019-01-11T11:02:49.635Z,14.23
2019-01-11T11:05:18.560Z,14.00
2019-01-11T11:07:47.464Z,15.20
2019-01-11T11:10:16.316Z,13.67
2019-01-11T11:12:45.226Z,11.87
2019-01-11T11:15:15.012Z,8.93
2019-01-11T11:17:43.805Z,9.40
2019-01-11T11:20:14.245Z,13.87
2019-01-11T11:22:43.186Z,13.57
2019-01-11T11:25:14.153Z,10.20
2019-01-11T11:27:43.057Z,11.50
2019-01-11T11:30:13.046Z,11.60
2019-01-11T11:32:55.762Z,13.30
2019-01-11T11:35:25.675Z,14.33
2019-01-11T11:37:54.607Z,16.67
2019-01-11T11:40:23.594Z,16.70
2019-01-11T11:42:52.504Z,12.83
2019-01-11T11:45:21.377Z,11.43
2019-01-11T11:47:50.312Z,16.80
2019-01-11T11:50:19.178Z,10.43
2019-01-11T11:52:48.045Z,13.90
2019-01-11T11:55:16.941Z,12.93
2019-01-11T11:57:45.861Z,11.70
2019-01-11T12:00:17.392Z,10.57
2019-01-11T12:02:46.284Z,14.73
2019-01-11T12:05:15.195Z,14.40
2019-01-11T12:07:44.072Z,11.07
2019-01-11T12:10:14.295Z,13.03
2019-01-11T12:12:43.174Z,15.87
2019-01-11T12:15:12.958Z,13.13
2019-01-11T12:17:41.832Z,15.67
2019-01-11T12:20:25.194Z,13.68
2019-01-11T12:22:54.091Z,9.17
2019-01-11T12:25:23.033Z,13.13
2019-01-11T12:27:51.895Z,29.33
2019-01-11T12:30:20.777Z,20.00
2019-01-11T12:32:49.662Z,11.47
2019-01-11T12:35:18.636Z,8.37
2019-01-11T12:37:47.521Z,12.63
2019-01-11T12:40:16.435Z,12.47
2019-01-11T12:42:45.297Z,7.40
2019-01-11T12:45:14.489Z,6.83
2019-01-11T12:47:43.430Z,8.10
2019-01-11T12:50:15.447Z,10.67
2019-01-11T12:52:44.314Z,8.63
2019-01-11T12:55:13.201Z,6.97
2019-01-11T12:57:42.063Z,5.87
2019-01-11T13:00:12.876Z,7.80
2019-01-11T13:02:41.751Z,8.23
2019-01-11T13:05:12.197Z,6.33
2019-01-11T13:07:41.123Z,7.10
2019-01-11T13:10:12.147Z,8.00
2019-01-11T13:12:41.063Z,5.37
2019-01-11T13:15:12.466Z,5.67
2019-01-11T13:17:41.320Z,6.07
2019-01-11T13:20:12.069Z,5.43
2019-01-11T13:22:40.952Z,4.87
2019-01-11T13:25:09.953Z,5.67
2019-01-11T13:27:38.825Z,3.43
2019-01-11T13:30:09.925Z,4.23
2019-01-11T13:32:38.800Z,4.70
2019-01-11T13:35:07.743Z,1.70
2019-01-11T13:37:36.658Z,2.60
2019-01-11T13:40:11.392Z,1.67
2019-01-11T13:42:40.261Z,3.50
2019-01-11T13:45:09.215Z,2.47
2019-01-11T13:47:38.080Z,4.27
2019-01-11T13:50:11.371Z,1.10
2019-01-11T13:52:40.249Z,1.50
2019-01-11T13:55:09.151Z,1.67
2019-01-11T13:57:38.015Z,2.13
2019-01-11T14:00:09.310Z,1.50
2019-01-11T14:02:38.215Z,2.73
2019-01-11T14:05:07.085Z,1.70
2019-01-11T14:07:35.953Z,3.30
2019-01-11T14:10:04.905Z,4.90
2019-01-11T14:12:33.772Z,5.80
2019-01-11T14:15:02.686Z,5.33
2019-01-11T14:17:31.512Z,9.80
2019-01-11T14:20:00.369Z,9.37
2019-01-11T14:22:29.260Z,8.93
2019-01-11T14:24:58.107Z,7.57
2019-01-11T14:27:27.011Z,10.40
2019-01-11T14:29:55.888Z,14.23
2019-01-11T14:32:24.743Z,5.87
2019-01-11T14:34:53.623Z,17.07
2019-01-11T14:37:22.540Z,15.13
2019-01-11T14:39:51.430Z,17.00
2019-01-11T14:42:20.362Z,16.05
2019-01-11T14:44:49.218Z,11.93
2019-01-11T14:47:18.073Z,19.47
2019-01-11T14:49:46.960Z,15.00
2019-01-11T14:52:20.520Z,17.23
2019-01-11T14:54:47.302Z,10.00
2019-01-11T14:57:16.500Z,14.67
2019-01-11T14:59:45.794Z,14.33
2019-01-11T15:02:14.648Z,12.27
2019-01-11T15:04:43.533Z,11.63
2019-01-11T15:07:12.430Z,13.47
2019-01-11T15:09:41.967Z,11.60
2019-01-11T15:12:11.433Z,10.27
2019-01-11T15:14:40.307Z,13.27
2019-01-11T15:17:10.009Z,10.80
2019-01-11T15:19:39.426Z,17.05
2019-01-11T15:22:08.852Z,17.57
2019-01-11T15:24:38.072Z,15.00
2019-01-11T15:27:07.511Z,12.00
2019-01-11T15:29:39.071Z,10.30
2019-01-11T15:32:08.375Z,12.10
2019-01-11T15:34:37.251Z,13.47
2019-01-11T15:37:07.522Z,10.77
2019-01-11T15:39:36.341Z,11.60
2019-01-11T15:42:05.233Z,9.47
2019-01-11T15:44:34.180Z,13.20
2019-01-11T15:47:03.046Z,9.60
2019-01-11T15:49:31.918Z,11.60
2019-01-11T15:52:00.830Z,12.70
2019-01-11T15:54:30.930Z,13.70
2019-01-11T15:56:59.756Z,13.57
2019-01-11T15:59:28.653Z,12.25
2019-01-11T16:01:57.548Z,10.33
2019-01-11T16:04:26.423Z,9.43
2019-01-11T16:06:55.308Z,11.03
2019-01-11T16:10:02.476Z,7.57
2019-01-11T16:13:09.529Z,9.43
2019-01-11T16:15:43.499Z,9.87
2019-01-11T16:18:34.046Z,9.00
2019-01-11T16:21:02.939Z,11.47
2019-01-11T16:23:35.042Z,6.93
2019-01-11T16:26:04.458Z,6.17
2019-01-11T16:28:36.541Z,8.03
2019-01-11T16:31:05.665Z,7.43
2019-01-11T16:33:34.805Z,7.83
2019-01-11T16:36:10.857Z,10.50
2019-01-11T16:38:39.935Z,5.37
2019-01-11T16:41:09.206Z,6.30
2019-01-11T16:43:41.788Z,5.10
2019-01-11T16:46:10.964Z,8.37
2019-01-11T16:48:40.005Z,8.83
2019-01-11T16:51:11.785Z,7.35
2019-01-11T16:53:43.214Z,10.27
2019-01-11T16:56:15.190Z,8.27
2019-01-11T16:58:43.788Z,10.27
2019-01-11T17:01:15.708Z,9.27
2019-01-11T17:03:47.613Z,5.80
2019-01-11T17:06:20.065Z,7.33
2019-01-11T17:08:53.298Z,4.97
2019-01-11T17:11:23.505Z,8.20
2019-01-11T17:13:54.554Z,11.00
2019-01-11T17:16:30.583Z,8.47
2019-01-11T17:19:02.339Z,11.43
2019-01-11T17:21:34.315Z,8.73
2019-01-11T17:24:07.571Z,10.13
2019-01-11T17:26:36.973Z,15.10
2019-01-11T17:29:06.767Z,13.10
2019-01-11T17:31:38.978Z,10.17
2019-01-11T17:34:11.394Z,11.03
2019-01-11T17:36:42.243Z,12.90
2019-01-11T17:39:11.999Z,9.30
2019-01-11T17:41:41.624Z,12.80
2019-01-11T17:44:11.007Z,9.87
2019-01-11T17:46:40.136Z,9.97
2019-01-11T17:49:12.454Z,5.33
2019-01-11T17:51:44.016Z,8.00
2019-01-11T17:54:15.967Z,15.33
2019-01-11T17:56:48.146Z,10.27
2019-01-11T17:59:17.653Z,12.33
2019-01-11T18:01:46.954Z,10.30
2019-01-11T18:04:21.249Z,8.97
2019-01-11T18:06:50.864Z,11.80
2019-01-11T18:09:20.211Z,12.13
2019-01-11T18:11:54.457Z,14.93
2019-01-11T18:14:23.936Z,8.80
2019-01-11T18:16:53.154Z,14.43
2019-01-11T18:19:22.929Z,11.73
2019-01-11T18:21:52.781Z,17.97
2019-01-11T18:24:23.287Z,7.97
2019-01-11T18:26:55.504Z,13.23
2019-01-11T18:29:31.271Z,12.40
2019-01-11T18:32:08.025Z,11.97
2019-01-11T18:34:37.419Z,10.47
2019-01-11T18:37:10.316Z,13.67
2019-01-11T18:39:50.206Z,8.57
2019-01-11T18:42:20.113Z,11.23
2019-01-11T18:44:51.430Z,12.07
2019-01-11T18:47:23.562Z,8.27
2019-01-11T18:49:55.296Z,8.77
2019-01-11T18:52:24.214Z,10.70
2019-01-11T18:54:53.124Z,8.33
2019-01-11T18:57:22.025Z,9.13
2019-01-11T18:59:50.922Z,53.80
2019-01-11T19:02:19.877Z,7.57
2019-01-11T19:04:48.791Z,6.77
2019-01-11T19:07:17.663Z,5.27
2019-01-11T19:09:46.563Z,5.07
2019-01-11T19:12:15.481Z,6.00
2019-01-11T19:14:44.347Z,6.87
2019-01-11T19:17:13.279Z,3.93
2019-01-11T19:19:42.171Z,7.05
2019-01-11T19:22:11.053Z,6.33
2019-01-11T19:24:39.937Z,3.73
2019-01-11T19:27:08.816Z,4.20
2019-01-11T19:29:37.705Z,7.67
2019-01-11T19:32:06.593Z,6.87
2019-01-11T19:34:35.462Z,9.23
2019-01-11T19:37:04.378Z,7.23
2019-01-11T19:39:33.263Z,8.38
2019-01-11T19:42:02.174Z,11.70
2019-01-11T19:44:31.067Z,12.28
2019-01-11T19:46:59.993Z,8.13
2019-01-11T19:49:28.923Z,7.07
2019-01-11T19:51:57.911Z,11.63
2019-01-11T19:54:26.763Z,10.17
2019-01-11T19:56:55.708Z,9.53
2019-01-11T19:59:24.699Z,9.67
2019-01-11T20:01:53.620Z,12.23
2019-01-11T20:04:22.536Z,8.27
2019-01-11T20:06:51.521Z,10.30
2019-01-11T20:09:20.428Z,9.63
2019-01-11T20:11:49.291Z,13.00
2019-01-11T20:14:18.208Z,8.33
2019-01-11T20:16:47.075Z,14.07
2019-01-11T20:19:15.946Z,14.87
2019-01-11T20:21:44.855Z,15.50
2019-01-11T20:24:13.764Z,15.07
2019-01-11T20:26:42.662Z,7.07
2019-01-11T20:29:11.577Z,8.30
2019-01-11T20:31:40.445Z,10.87
2019-01-11T20:34:09.320Z,11.70
2019-01-11T20:36:43.896Z,10.83
2019-01-11T20:39:12.786Z,9.50
2019-01-11T20:41:41.702Z,12.93
2019-01-11T20:44:10.564Z,12.97
2019-01-11T20:46:39.434Z,8.83
2019-01-11T20:49:08.329Z,10.10
2019-01-11T20:51:37.191Z,10.97
2019-01-11T20:54:06.077Z,12.73
2019-01-11T20:56:34.982Z,10.83
2019-01-11T20:59:03.855Z,7.23
2019-01-11T21:01:32.722Z,8.87
2019-01-11T21:04:01.633Z,10.60
2019-01-11T21:06:30.503Z,8.83
2019-01-11T21:08:59.389Z,8.47
2019-01-11T21:11:28.271Z,9.17
2019-01-11T21:13:57.167Z,11.23
2019-01-11T21:16:26.050Z,13.53
2019-01-11T21:18:54.962Z,11.67
2019-01-11T21:21:23.838Z,10.03
2019-01-11T21:23:52.730Z,10.67
2019-01-11T21:26:21.648Z,8.40
2019-01-11T21:28:50.552Z,10.90
2019-01-11T21:31:19.437Z,11.87
2019-01-11T21:33:48.335Z,10.87
2019-01-11T21:36:17.233Z,12.97
2019-01-11T21:38:46.110Z,10.63
2019-01-11T21:41:14.990Z,11.30
2019-01-11T21:43:43.851Z,7.97
2019-01-11T21:46:12.746Z,13.00
2019-01-11T21:48:41.625Z,50.97
2019-01-11T21:51:10.520Z,22.50
2019-01-11T21:53:39.376Z,13.73
2019-01-11T21:56:08.313Z,12.40
2019-01-11T21:58:37.200Z,7.27
2019-01-11T22:01:06.100Z,7.20
2019-01-11T22:03:34.977Z,10.37
2019-01-11T22:06:03.957Z,7.23
2019-01-11T22:08:32.839Z,10.57
2019-01-11T22:11:01.736Z,7.13
2019-01-11T22:13:30.648Z,4.43
2019-01-11T22:15:59.556Z,5.10
2019-01-11T22:18:28.436Z,7.40
2019-01-11T22:20:57.354Z,3.03
2019-01-11T22:23:26.327Z,9.13
2019-01-11T22:25:55.210Z,4.10
2019-01-11T22:28:24.096Z,6.77
2019-01-11T22:30:52.995Z,5.80
2019-01-11T22:33:21.940Z,6.00
2019-01-11T22:35:50.834Z,8.45
2019-01-11T22:38:19.693Z,5.40
2019-01-11T22:40:48.555Z,5.40
2019-01-11T22:43:17.489Z,5.83
2019-01-11T22:45:46.352Z,5.30
2019-01-11T22:48:15.258Z,5.80
2019-01-11T22:50:44.194Z,5.17
2019-01-11T22:53:13.046Z,4.00
2019-01-11T22:55:41.946Z,3.17
2019-01-11T22:58:10.809Z,6.63
2019-01-11T23:01:19.507Z,4.67
2019-01-11T23:03:51.192Z,7.90
2019-01-11T23:06:59.506Z,5.65
2019-01-11T23:09:34.756Z,6.30
2019-01-11T23:12:13.627Z,6.37
2019-01-11T23:14:42.529Z,5.67
2019-01-11T23:17:31.497Z,4.90
2019-01-11T23:20:00.399Z,7.60
2019-01-11T23:22:29.477Z,7.37
2019-01-11T23:24:58.377Z,8.27
2019-01-11T23:27:27.269Z,5.07
2019-01-11T23:29:56.145Z,6.93
2019-01-11T23:32:25.045Z,6.57
2019-01-11T23:34:53.982Z,11.27
2019-01-11T23:37:22.856Z,13.03
2019-01-11T23:39:51.762Z,24.43
2019-01-11T23:42:20.730Z,5.27
2019-01-11T23:44:49.618Z,9.10
2019-01-11T23:47:18.665Z,6.87
2019-01-11T23:49:47.555Z,10.50
2019-01-11T23:52:16.475Z,10.00
2019-01-11T23:54:45.351Z,11.10
2019-01-11T23:57:14.210Z,10.23
2019-01-11T23:59:43.104Z,8.07
